createdAt,value
2023-05-21T00:00:47.104Z,17.15
2023-05-21T00:04:11.094Z,17.20
2023-05-21T00:07:33.180Z,17.63
2023-05-21T00:10:55.121Z,17.58
2023-05-21T00:14:18.154Z,17.36
2023-05-21T00:17:42.264Z,17.05
2023-05-21T00:21:06.164Z,17.56
2023-05-21T00:24:29.128Z,17.90
2023-05-21T00:27:51.164Z,17.90
2023-05-21T00:31:14.159Z,18.13
2023-05-21T00:34:37.118Z,17.70
2023-05-21T00:38:02.123Z,18.45
2023-05-21T00:41:25.179Z,18.59
2023-05-21T00:44:47.127Z,18.12
2023-05-21T00:48:10.158Z,18.48
2023-05-21T00:51:27.270Z,19.33
2023-05-21T00:54:44.188Z,19.55
2023-05-21T00:58:07.108Z,18.59
2023-05-21T01:01:33.200Z,18.04
2023-05-21T01:04:55.119Z,17.85
2023-05-21T01:08:18.144Z,17.82
2023-05-21T01:11:43.147Z,17.66
2023-05-21T01:15:05.129Z,17.29
2023-05-21T01:18:28.192Z,17.06
2023-05-21T01:21:51.117Z,17.28
2023-05-21T01:25:14.129Z,18.38
2023-05-21T01:28:38.168Z,18.71
2023-05-21T01:32:20.156Z,19.02
2023-05-21T01:35:52.183Z,18.57
2023-05-21T01:39:38.188Z,18.14
2023-05-21T01:43:01.192Z,18.40
2023-05-21T01:46:25.224Z,18.00
2023-05-21T01:49:48.180Z,18.08
2023-05-21T01:53:07.262Z,18.05
2023-05-21T01:56:24.213Z,18.52
2023-05-21T01:59:47.157Z,18.79
2023-05-21T02:03:11.213Z,18.39
2023-05-21T02:06:33.172Z,18.16
2023-05-21T02:09:56.214Z,17.65
2023-05-21T02:13:18.146Z,17.43
2023-05-21T02:16:41.263Z,17.50
2023-05-21T02:20:03.180Z,17.45
2023-05-21T02:23:26.206Z,17.31
2023-05-21T02:26:48.193Z,17.47
2023-05-21T02:30:12.257Z,17.32
2023-05-21T02:33:34.308Z,16.83
2023-05-21T02:37:02.226Z,16.53
2023-05-21T02:40:26.187Z,16.27
2023-05-21T02:43:48.268Z,16.39
2023-05-21T02:47:10.162Z,16.14
2023-05-21T02:50:32.237Z,16.34
2023-05-21T02:53:48.809Z,16.13
2023-05-21T02:57:06.221Z,16.20
2023-05-21T03:00:28.257Z,16.09
2023-05-21T03:03:50.230Z,16.21
2023-05-21T03:07:12.284Z,16.23
2023-05-21T03:10:35.243Z,16.08
2023-05-21T03:13:57.214Z,16.50
2023-05-21T03:17:25.327Z,17.22
2023-05-21T03:20:51.177Z,17.50
2023-05-21T03:24:13.250Z,17.36
2023-05-21T03:27:36.190Z,16.84
2023-05-21T03:31:14.269Z,16.50
2023-05-21T03:34:55.204Z,16.15
2023-05-21T03:38:17.254Z,15.91
2023-05-21T03:41:39.191Z,15.94
2023-05-21T03:45:19.208Z,16.17
2023-05-21T03:49:13.216Z,16.24
2023-05-21T03:52:39.230Z,16.58
2023-05-21T03:55:56.456Z,16.72
2023-05-21T03:59:15.259Z,16.61
2023-05-21T04:02:37.309Z,16.36
2023-05-21T04:06:04.218Z,16.21
2023-05-21T04:09:28.221Z,16.22
2023-05-21T04:12:50.247Z,16.14
2023-05-21T04:16:12.306Z,16.21
2023-05-21T04:19:35.401Z,16.13
2023-05-21T04:23:00.227Z,16.20
2023-05-21T04:26:24.249Z,16.09
2023-05-21T04:29:50.777Z,15.95
2023-05-21T04:33:14.222Z,15.91
2023-05-21T04:36:37.241Z,15.72
2023-05-21T04:40:01.226Z,15.66
2023-05-21T04:43:25.206Z,15.50
2023-05-21T04:46:49.299Z,15.32
2023-05-21T04:50:13.229Z,15.25
2023-05-21T04:53:39.228Z,15.31
2023-05-21T04:57:02.269Z,15.17
2023-05-21T05:00:26.249Z,15.24
2023-05-21T05:03:48.319Z,15.22
2023-05-21T05:07:10.249Z,15.18
2023-05-21T05:10:33.249Z,15.04
2023-05-21T05:13:55.285Z,14.95
2023-05-21T05:17:22.334Z,14.96
2023-05-21T05:20:46.244Z,14.93
2023-05-21T05:24:09.360Z,14.75
2023-05-21T05:27:32.260Z,14.55
2023-05-21T05:30:55.313Z,14.42
2023-05-21T05:34:18.253Z,14.28
2023-05-21T05:37:41.286Z,14.18
2023-05-21T05:41:03.276Z,14.16
2023-05-21T05:44:25.277Z,14.10
2023-05-21T05:47:48.306Z,14.09
2023-05-21T05:51:11.300Z,13.98
2023-05-21T05:54:34.273Z,14.12
2023-05-21T05:57:57.294Z,14.07
2023-05-21T06:01:22.266Z,14.04
2023-05-21T06:04:45.267Z,13.93
2023-05-21T06:08:08.261Z,13.73
2023-05-21T06:11:31.263Z,13.86
2023-05-21T06:14:55.278Z,13.81
2023-05-21T06:18:19.291Z,13.89
2023-05-21T06:21:43.276Z,13.81
2023-05-21T06:25:07.325Z,13.62
2023-05-21T06:28:29.264Z,13.34
2023-05-21T06:31:52.306Z,13.52
2023-05-21T06:35:16.275Z,13.55
2023-05-21T06:38:38.288Z,13.59
2023-05-21T06:42:00.290Z,13.60
2023-05-21T06:45:36.659Z,13.59
2023-05-21T06:49:19.247Z,13.38
2023-05-21T06:52:41.328Z,13.40
2023-05-21T06:56:03.288Z,13.52
2023-05-21T06:59:30.354Z,13.62
2023-05-21T07:02:53.342Z,13.72
2023-05-21T07:06:16.297Z,13.76
2023-05-21T07:09:39.289Z,13.27
2023-05-21T07:13:01.361Z,13.09
2023-05-21T07:16:25.322Z,12.62
2023-05-21T07:19:48.460Z,12.47
2023-05-21T07:23:11.281Z,12.33
2023-05-21T07:26:34.368Z,12.37
2023-05-21T07:29:57.307Z,12.20
2023-05-21T07:33:22.326Z,12.25
2023-05-21T07:36:45.329Z,12.26
2023-05-21T07:40:09.339Z,12.33
2023-05-21T07:43:32.336Z,12.21
2023-05-21T07:46:54.331Z,12.19
2023-05-21T07:50:17.323Z,12.03
2023-05-21T07:53:40.368Z,12.03
2023-05-21T07:57:06.313Z,12.14
2023-05-21T08:00:44.379Z,12.17
2023-05-21T08:04:13.558Z,12.01
2023-05-21T08:07:36.336Z,12.19
2023-05-21T08:10:58.379Z,12.05
2023-05-21T08:14:26.336Z,11.96
2023-05-21T08:17:49.418Z,11.95
2023-05-21T08:21:13.341Z,11.89
2023-05-21T08:24:35.345Z,12.10
2023-05-21T08:28:18.386Z,12.22
2023-05-21T08:31:41.372Z,12.36
2023-05-21T08:35:05.347Z,12.25
2023-05-21T08:38:53.323Z,12.26
2023-05-21T08:42:36.954Z,12.30
2023-05-21T08:46:09.375Z,12.26
2023-05-21T08:49:32.379Z,12.29
2023-05-21T08:52:54.330Z,12.28
2023-05-21T08:56:16.376Z,12.17
2023-05-21T08:59:46.324Z,12.14
2023-05-21T09:03:19.500Z,12.16
2023-05-21T09:06:42.328Z,12.28
2023-05-21T09:10:11.406Z,12.28
2023-05-21T09:13:36.851Z,12.25
2023-05-21T09:17:08.414Z,12.27
2023-05-21T09:20:32.384Z,12.29
2023-05-21T09:23:54.370Z,12.23
2023-05-21T09:27:17.372Z,12.33
2023-05-21T09:30:40.684Z,12.45
2023-05-21T09:34:06.406Z,12.38
2023-05-21T09:37:31.363Z,12.39
2023-05-21T09:40:56.418Z,12.38
2023-05-21T09:44:18.357Z,12.49
2023-05-21T09:47:41.432Z,12.56
2023-05-21T09:51:03.341Z,12.58
2023-05-21T09:54:26.421Z,12.52
2023-05-21T09:57:50.489Z,12.40
2023-05-21T10:01:14.434Z,12.28
2023-05-21T10:04:32.428Z,12.12
2023-05-21T10:07:53.404Z,12.05
2023-05-21T10:11:16.383Z,11.94
2023-05-21T10:14:38.402Z,11.68
2023-05-21T10:18:00.436Z,11.47
2023-05-21T10:21:22.430Z,11.38
2023-05-21T10:24:45.378Z,11.33
2023-05-21T10:28:08.398Z,11.27
2023-05-21T10:31:30.393Z,11.19
2023-05-21T10:34:52.403Z,11.14
2023-05-21T10:38:14.427Z,11.16
2023-05-21T10:41:36.378Z,11.09
2023-05-21T10:45:02.501Z,11.13
2023-05-21T10:48:27.386Z,11.24
2023-05-21T10:52:28.439Z,11.49
2023-05-21T10:56:09.390Z,11.63
2023-05-21T10:59:32.430Z,11.71
2023-05-21T11:03:15.546Z,11.77
2023-05-21T11:06:39.447Z,11.89
2023-05-21T11:10:06.408Z,12.01
2023-05-21T11:13:30.432Z,12.14
2023-05-21T11:16:53.471Z,12.10
2023-05-21T11:20:18.427Z,12.24
2023-05-21T11:23:47.478Z,12.27
2023-05-21T11:27:15.382Z,12.31
2023-05-21T11:30:40.864Z,12.25
2023-05-21T11:34:03.421Z,12.24
2023-05-21T11:37:34.507Z,12.03
2023-05-21T11:41:07.408Z,12.07
2023-05-21T11:44:34.445Z,12.01
2023-05-21T11:47:57.463Z,12.03
2023-05-21T11:51:19.441Z,12.00
2023-05-21T11:54:44.456Z,11.96
2023-05-21T11:58:09.457Z,11.94
2023-05-21T12:01:39.430Z,11.95
2023-05-21T12:05:02.462Z,11.96
2023-05-21T12:08:18.028Z,12.07
2023-05-21T12:11:35.450Z,12.09
2023-05-21T12:15:15.442Z,12.19
2023-05-21T12:18:37.442Z,12.17
2023-05-21T12:22:00.404Z,12.22
2023-05-21T12:25:33.457Z,12.24
2023-05-21T12:28:56.438Z,12.22
2023-05-21T12:32:20.536Z,12.25
2023-05-21T12:35:42.523Z,12.22
2023-05-21T12:39:08.840Z,12.11
2023-05-21T12:42:38.433Z,12.03
2023-05-21T12:46:02.492Z,12.03
2023-05-21T12:49:44.531Z,12.15
2023-05-21T12:53:10.476Z,12.05
2023-05-21T12:56:33.519Z,12.15
2023-05-21T13:00:04.437Z,12.16
2023-05-21T13:03:26.493Z,12.09
2023-05-21T13:07:08.469Z,12.03
2023-05-21T13:10:30.520Z,11.96
2023-05-21T13:13:53.431Z,11.97
2023-05-21T13:17:15.499Z,11.92
2023-05-21T13:20:37.668Z,11.90
2023-05-21T13:24:00.491Z,11.98
2023-05-21T13:27:23.441Z,11.91
2023-05-21T13:30:46.513Z,11.88
2023-05-21T13:34:08.479Z,11.82
2023-05-21T13:37:30.447Z,11.68
2023-05-21T13:40:52.474Z,11.64
2023-05-21T13:44:14.480Z,11.60
2023-05-21T13:47:39.276Z,11.72
2023-05-21T13:51:02.460Z,11.80
2023-05-21T13:54:25.494Z,11.81
2023-05-21T13:57:48.442Z,11.83
2023-05-21T14:01:11.575Z,11.94
2023-05-21T14:04:34.450Z,11.96
2023-05-21T14:07:56.507Z,11.90
2023-05-21T14:11:13.202Z,12.00
2023-05-21T14:14:30.504Z,11.98
2023-05-21T14:17:53.489Z,12.06
2023-05-21T14:21:15.513Z,12.07
2023-05-21T14:24:38.452Z,12.07
2023-05-21T14:28:02.497Z,12.04
2023-05-21T14:31:25.549Z,11.97
2023-05-21T14:34:48.524Z,11.96
2023-05-21T14:38:12.485Z,11.89
2023-05-21T14:41:37.483Z,11.91
2023-05-21T14:45:07.458Z,11.98
2023-05-21T14:48:40.463Z,12.10
2023-05-21T14:52:03.497Z,12.10
2023-05-21T14:55:26.478Z,12.18
2023-05-21T14:58:49.477Z,12.28
2023-05-21T15:02:12.549Z,12.25
2023-05-21T15:05:38.694Z,12.16
2023-05-21T15:09:01.475Z,12.17
2023-05-21T15:12:24.545Z,12.14
2023-05-21T15:15:47.513Z,12.09
2023-05-21T15:19:09.580Z,12.06
2023-05-21T15:22:32.472Z,12.15
2023-05-21T15:25:54.530Z,12.15
2023-05-21T15:29:17.500Z,12.23
2023-05-21T15:32:34.565Z,12.25
2023-05-21T15:35:57.522Z,12.35
2023-05-21T15:39:19.545Z,12.38
2023-05-21T15:42:42.507Z,12.26
2023-05-21T15:46:04.536Z,12.46
2023-05-21T15:49:27.528Z,12.40
2023-05-21T15:52:51.020Z,12.46
2023-05-21T15:56:17.513Z,12.46
2023-05-21T15:59:39.551Z,12.46
2023-05-21T16:03:02.569Z,12.44
2023-05-21T16:06:24.551Z,12.37
2023-05-21T16:09:46.513Z,12.42
2023-05-21T16:13:08.565Z,12.42
2023-05-21T16:16:31.551Z,12.41
2023-05-21T16:19:53.548Z,12.45
2023-05-21T16:23:16.518Z,12.42
2023-05-21T16:26:38.591Z,12.36
2023-05-21T16:30:01.563Z,12.24
2023-05-21T16:33:24.558Z,12.31
2023-05-21T16:36:46.489Z,12.29
2023-05-21T16:40:09.549Z,12.19
2023-05-21T16:43:32.505Z,12.19
2023-05-21T16:46:55.552Z,12.14
2023-05-21T16:50:18.499Z,12.17
2023-05-21T16:53:40.612Z,12.20
2023-05-21T16:57:03.528Z,12.12
2023-05-21T17:00:25.564Z,12.14
2023-05-21T17:03:47.622Z,12.12
2023-05-21T17:07:10.559Z,12.10
2023-05-21T17:10:33.522Z,12.20
2023-05-21T17:13:56.544Z,12.11
2023-05-21T17:17:19.553Z,12.19
2023-05-21T17:20:41.630Z,12.19
2023-05-21T17:24:03.542Z,12.22
2023-05-21T17:27:26.550Z,12.24
2023-05-21T17:30:49.688Z,12.18
2023-05-21T17:34:12.563Z,12.17
2023-05-21T17:37:35.538Z,12.10
2023-05-21T17:40:58.525Z,12.14
2023-05-21T17:44:21.574Z,12.14
2023-05-21T17:47:43.589Z,12.07
2023-05-21T17:51:06.550Z,12.00
2023-05-21T17:54:29.564Z,12.00
2023-05-21T17:57:53.514Z,12.01
2023-05-21T18:01:09.653Z,11.94
2023-05-21T18:04:31.647Z,11.96
2023-05-21T18:07:54.571Z,11.87
2023-05-21T18:11:16.522Z,11.87
2023-05-21T18:14:40.600Z,11.69
2023-05-21T18:18:03.657Z,11.60
2023-05-21T18:21:25.561Z,11.56
2023-05-21T18:24:48.567Z,11.46
2023-05-21T18:28:13.599Z,11.32
2023-05-21T18:31:36.566Z,11.38
2023-05-21T18:34:58.586Z,11.36
2023-05-21T18:38:21.559Z,11.42
2023-05-21T18:41:43.588Z,11.39
2023-05-21T18:45:05.573Z,11.33
2023-05-21T18:48:27.569Z,11.25
2023-05-21T18:51:49.564Z,10.99
2023-05-21T18:55:13.577Z,11.19
2023-05-21T18:58:37.575Z,11.21
2023-05-21T19:01:59.636Z,10.98
2023-05-21T19:05:22.674Z,11.02
2023-05-21T19:08:44.607Z,11.20
2023-05-21T19:12:08.587Z,11.16
2023-05-21T19:15:24.174Z,11.20
2023-05-21T19:18:43.628Z,11.24
2023-05-21T19:22:05.583Z,11.21
2023-05-21T19:25:28.606Z,11.24
2023-05-21T19:28:50.587Z,11.32
2023-05-21T19:32:13.578Z,11.16
2023-05-21T19:35:35.558Z,11.23
2023-05-21T19:39:01.604Z,11.06
2023-05-21T19:42:25.598Z,11.07
2023-05-21T19:45:47.692Z,11.00
2023-05-21T19:49:10.604Z,11.17
2023-05-21T19:52:34.630Z,11.22
2023-05-21T19:55:57.681Z,11.33
2023-05-21T19:59:20.614Z,11.38
2023-05-21T20:02:42.715Z,11.56
2023-05-21T20:06:05.593Z,11.66
2023-05-21T20:09:27.620Z,11.86
2023-05-21T20:12:49.617Z,11.86
2023-05-21T20:16:12.831Z,12.09
2023-05-21T20:19:35.714Z,12.26
2023-05-21T20:22:58.618Z,12.43
2023-05-21T20:26:20.590Z,12.57
2023-05-21T20:29:43.601Z,12.61
2023-05-21T20:33:05.641Z,12.76
2023-05-21T20:36:29.645Z,12.80
2023-05-21T20:39:53.609Z,12.87
2023-05-21T20:43:19.627Z,13.10
2023-05-21T20:46:41.661Z,14.32
2023-05-21T20:50:05.603Z,15.15
2023-05-21T20:53:27.667Z,16.32
2023-05-21T20:56:52.559Z,17.91
2023-05-21T21:00:14.624Z,17.60
2023-05-21T21:03:41.688Z,16.98
2023-05-21T21:07:04.622Z,17.46
2023-05-21T21:10:26.665Z,18.77
2023-05-21T21:13:49.617Z,18.31
2023-05-21T21:17:11.645Z,18.14
2023-05-21T21:20:34.644Z,18.25
2023-05-21T21:23:58.674Z,18.06
2023-05-21T21:27:21.597Z,18.96
2023-05-21T21:30:43.668Z,17.18
2023-05-21T21:34:05.657Z,16.43
2023-05-21T21:37:27.643Z,17.05
2023-05-21T21:40:49.620Z,17.74
2023-05-21T21:44:11.756Z,18.83
2023-05-21T21:47:33.706Z,19.04
2023-05-21T21:50:55.676Z,18.48
2023-05-21T21:54:17.632Z,18.69
2023-05-21T21:57:39.713Z,19.82
2023-05-21T22:01:02.671Z,19.15
2023-05-21T22:04:25.672Z,19.25
2023-05-21T22:07:49.619Z,19.09
2023-05-21T22:11:11.698Z,19.29
2023-05-21T22:14:34.652Z,18.22
2023-05-21T22:17:57.699Z,18.51
2023-05-21T22:21:21.666Z,19.37
2023-05-21T22:24:43.684Z,19.59
2023-05-21T22:28:06.678Z,19.50
2023-05-21T22:31:29.667Z,19.73
2023-05-21T22:34:51.701Z,20.26
2023-05-21T22:38:14.644Z,19.71
2023-05-21T22:41:38.680Z,19.21
2023-05-21T22:45:01.671Z,19.51
2023-05-21T22:48:25.713Z,19.38
2023-05-21T22:51:52.680Z,18.75
2023-05-21T22:55:19.672Z,17.94
2023-05-21T22:58:42.681Z,18.26
2023-05-21T23:02:04.725Z,18.60
2023-05-21T23:05:27.742Z,18.11
2023-05-21T23:08:51.795Z,18.23
2023-05-21T23:12:13.664Z,17.88
2023-05-21T23:15:37.744Z,17.98
2023-05-21T23:18:55.777Z,17.73
2023-05-21T23:22:12.704Z,17.27
2023-05-21T23:25:35.709Z,17.75
2023-05-21T23:28:57.681Z,17.41
2023-05-21T23:32:15.698Z,17.39
2023-05-21T23:35:37.743Z,17.39
2023-05-21T23:38:59.656Z,17.59
2023-05-21T23:42:22.696Z,17.52
2023-05-21T23:45:45.724Z,17.76
2023-05-21T23:49:07.675Z,17.30
2023-05-21T23:52:31.725Z,17.41
2023-05-21T23:55:53.687Z,17.59
2023-05-21T23:59:18.232Z,17.70
